createdAt,value
2023-05-15T00:01:31.631Z,8.97
2023-05-15T00:04:33.141Z,8.98
2023-05-15T00:07:34.956Z,8.92
2023-05-15T00:10:36.270Z,9.03
2023-05-15T00:13:38.561Z,9.06
2023-05-15T00:16:40.154Z,9.17
2023-05-15T00:19:41.660Z,9.19
2023-05-15T00:22:43.002Z,9.18
2023-05-15T00:25:44.334Z,9.18
2023-05-15T00:28:45.751Z,9.17
2023-05-15T00:31:47.202Z,9.01
2023-05-15T00:34:48.566Z,8.99
2023-05-15T00:37:49.920Z,8.97
2023-05-15T00:40:51.330Z,9.01
2023-05-15T00:43:52.733Z,8.90
2023-05-15T00:46:54.309Z,8.90
2023-05-15T00:49:55.700Z,8.90
2023-05-15T00:52:57.043Z,8.90
2023-05-15T00:55:58.650Z,8.90
2023-05-15T00:59:00.745Z,8.91
2023-05-15T01:02:02.176Z,8.88
2023-05-15T01:05:03.838Z,8.86
2023-05-15T01:08:07.037Z,8.80
2023-05-15T01:11:08.677Z,8.82
2023-05-15T01:14:10.136Z,8.87
2023-05-15T01:17:11.492Z,8.88
2023-05-15T01:20:13.219Z,8.90
2023-05-15T01:23:24.506Z,8.89
2023-05-15T01:26:41.164Z,8.85
2023-05-15T01:30:01.399Z,8.78
2023-05-15T01:33:06.833Z,8.68
2023-05-15T01:36:11.289Z,8.60
2023-05-15T01:39:12.850Z,8.61
2023-05-15T01:42:14.745Z,8.78
2023-05-15T01:45:16.108Z,8.84
2023-05-15T01:48:17.446Z,8.86
2023-05-15T01:51:18.831Z,8.70
2023-05-15T01:54:20.189Z,8.74
2023-05-15T01:57:21.533Z,8.80
2023-05-15T02:00:22.989Z,8.66
2023-05-15T02:03:24.427Z,8.69
2023-05-15T02:06:25.871Z,8.64
2023-05-15T02:09:27.248Z,8.57
2023-05-15T02:12:28.599Z,8.72
2023-05-15T02:15:30.103Z,8.69
2023-05-15T02:18:31.469Z,8.76
2023-05-15T02:21:33.695Z,8.70
2023-05-15T02:24:35.088Z,8.63
2023-05-15T02:27:38.851Z,8.52
2023-05-15T02:30:45.071Z,8.63
2023-05-15T02:33:55.966Z,8.71
2023-05-15T02:36:57.971Z,8.68
2023-05-15T02:39:59.777Z,8.52
2023-05-15T02:43:01.165Z,8.40
2023-05-15T02:46:02.539Z,8.29
2023-05-15T02:49:03.986Z,8.28
2023-05-15T02:52:05.539Z,8.33
2023-05-15T02:55:07.182Z,8.34
2023-05-15T02:58:08.532Z,8.36
2023-05-15T03:01:09.959Z,8.40
2023-05-15T03:04:11.394Z,8.45
2023-05-15T03:07:14.380Z,8.40
2023-05-15T03:10:15.878Z,8.37
2023-05-15T03:13:17.261Z,8.34
2023-05-15T03:16:18.639Z,8.20
2023-05-15T03:19:20.030Z,8.34
2023-05-15T03:22:21.400Z,8.28
2023-05-15T03:25:22.898Z,8.08
2023-05-15T03:28:24.459Z,8.07
2023-05-15T03:31:25.890Z,8.03
2023-05-15T03:34:27.406Z,8.01
2023-05-15T03:37:28.829Z,7.88
2023-05-15T03:40:30.280Z,7.90
2023-05-15T03:43:31.654Z,8.04
2023-05-15T03:46:33.045Z,8.01
2023-05-15T03:49:35.030Z,8.11
2023-05-15T03:52:36.539Z,8.25
2023-05-15T03:55:37.898Z,8.26
2023-05-15T03:58:39.309Z,8.34
2023-05-15T04:01:51.311Z,8.40
2023-05-15T04:05:02.501Z,8.32
2023-05-15T04:08:03.944Z,8.30
2023-05-15T04:11:05.998Z,8.29
2023-05-15T04:14:07.367Z,8.23
2023-05-15T04:17:08.699Z,8.17
2023-05-15T04:20:11.300Z,8.20
2023-05-15T04:23:15.266Z,8.31
2023-05-15T04:26:16.649Z,8.27
2023-05-15T04:29:18.011Z,8.36
2023-05-15T04:32:19.452Z,8.52
2023-05-15T04:35:20.826Z,8.55
2023-05-15T04:38:22.307Z,8.52
2023-05-15T04:41:23.639Z,8.52
2023-05-15T04:44:25.045Z,8.42
2023-05-15T04:47:26.442Z,8.47
2023-05-15T04:50:27.786Z,8.38
2023-05-15T04:53:29.122Z,8.47
2023-05-15T04:56:30.609Z,8.41
2023-05-15T04:59:32.026Z,8.47
2023-05-15T05:02:33.430Z,8.61
2023-05-15T05:05:34.812Z,8.63
2023-05-15T05:08:36.486Z,8.62
2023-05-15T05:11:39.212Z,8.58
2023-05-15T05:14:42.212Z,8.75
2023-05-15T05:17:43.867Z,8.86
2023-05-15T05:20:45.356Z,8.82
2023-05-15T05:23:47.301Z,8.75
2023-05-15T05:26:48.690Z,8.96
2023-05-15T05:29:50.269Z,8.92
2023-05-15T05:32:51.650Z,9.08
2023-05-15T05:35:53.607Z,9.16
2023-05-15T05:38:55.028Z,9.19
2023-05-15T05:41:56.402Z,9.20
2023-05-15T05:44:57.858Z,9.42
2023-05-15T05:47:59.359Z,9.52
2023-05-15T05:51:00.753Z,9.65
2023-05-15T05:54:02.153Z,9.74
2023-05-15T05:57:03.699Z,9.71
2023-05-15T06:00:11.205Z,9.70
2023-05-15T06:03:12.631Z,9.74
2023-05-15T06:06:14.160Z,9.72
2023-05-15T06:09:15.510Z,9.93
2023-05-15T06:12:17.066Z,10.04
2023-05-15T06:15:18.516Z,10.10
2023-05-15T06:18:19.877Z,10.20
2023-05-15T06:21:22.345Z,10.21
2023-05-15T06:24:23.711Z,10.31
2023-05-15T06:27:26.522Z,10.34
2023-05-15T06:30:27.885Z,10.47
2023-05-15T06:33:29.297Z,10.57
2023-05-15T06:36:30.779Z,10.61
2023-05-15T06:39:32.122Z,10.51
2023-05-15T06:42:33.563Z,10.71
2023-05-15T06:45:34.916Z,10.67
2023-05-15T06:48:36.372Z,10.76
2023-05-15T06:51:37.785Z,10.99
2023-05-15T06:54:40.536Z,11.09
2023-05-15T06:57:41.932Z,11.18
2023-05-15T07:00:43.584Z,11.32
2023-05-15T07:03:44.949Z,11.28
2023-05-15T07:06:46.357Z,11.34
2023-05-15T07:09:50.094Z,11.60
2023-05-15T07:12:51.478Z,11.71
2023-05-15T07:15:52.842Z,11.52
2023-05-15T07:18:54.195Z,11.89
2023-05-15T07:21:55.999Z,12.23
2023-05-15T07:24:57.429Z,12.50
2023-05-15T07:27:58.798Z,12.74
2023-05-15T07:31:02.778Z,12.85
2023-05-15T07:34:04.431Z,13.04
2023-05-15T07:37:05.913Z,13.27
2023-05-15T07:40:07.755Z,13.45
2023-05-15T07:43:09.103Z,13.46
2023-05-15T07:46:11.434Z,13.57
2023-05-15T07:49:12.856Z,13.66
2023-05-15T07:52:14.211Z,13.95
2023-05-15T07:55:15.714Z,14.16
2023-05-15T07:58:17.790Z,14.40
2023-05-15T08:01:19.170Z,14.10
2023-05-15T08:04:20.593Z,14.13
2023-05-15T08:07:21.944Z,14.02
2023-05-15T08:10:23.369Z,14.38
2023-05-15T08:13:24.849Z,14.60
2023-05-15T08:16:26.324Z,15.22
2023-05-15T08:19:27.822Z,15.35
2023-05-15T08:22:30.529Z,15.41
2023-05-15T08:25:31.935Z,15.26
2023-05-15T08:28:33.586Z,15.80
2023-05-15T08:31:35.004Z,16.41
2023-05-15T08:34:36.436Z,17.24
2023-05-15T08:37:37.799Z,17.30
2023-05-15T08:40:40.288Z,16.09
2023-05-15T08:43:41.750Z,14.99
2023-05-15T08:46:43.350Z,15.51
2023-05-15T08:49:46.173Z,15.36
2023-05-15T08:52:47.667Z,15.39
2023-05-15T08:55:49.037Z,15.77
2023-05-15T08:58:50.565Z,15.95
2023-05-15T09:01:52.049Z,15.82
2023-05-15T09:04:53.432Z,16.03
2023-05-15T09:07:54.825Z,15.86
2023-05-15T09:10:56.328Z,16.33
2023-05-15T09:14:00.977Z,16.32
2023-05-15T09:17:02.667Z,15.88
2023-05-15T09:20:08.247Z,15.94
2023-05-15T09:23:22.124Z,15.85
2023-05-15T09:26:23.776Z,15.77
2023-05-15T09:29:25.373Z,14.85
2023-05-15T09:32:27.277Z,14.59
2023-05-15T09:35:32.270Z,14.43
2023-05-15T09:38:33.915Z,14.77
2023-05-15T09:41:35.262Z,15.63
2023-05-15T09:44:38.806Z,15.55
2023-05-15T09:47:40.456Z,15.80
2023-05-15T09:50:42.059Z,15.73
2023-05-15T09:53:43.617Z,16.14
2023-05-15T09:56:45.317Z,16.80
2023-05-15T09:59:47.618Z,16.27
2023-05-15T10:02:48.985Z,16.81
2023-05-15T10:05:50.799Z,16.63
2023-05-15T10:08:53.250Z,16.72
2023-05-15T10:11:54.605Z,16.66
2023-05-15T10:14:56.214Z,17.84
2023-05-15T10:17:57.679Z,18.32
2023-05-15T10:21:04.012Z,17.45
2023-05-15T10:24:05.594Z,17.68
2023-05-15T10:27:06.973Z,17.45
2023-05-15T10:30:09.027Z,17.40
2023-05-15T10:33:10.390Z,17.49
2023-05-15T10:36:11.845Z,17.82
2023-05-15T10:39:13.317Z,18.11
2023-05-15T10:42:14.662Z,17.89
2023-05-15T10:45:16.265Z,17.77
2023-05-15T10:48:17.617Z,18.31
2023-05-15T10:51:19.331Z,17.53
2023-05-15T10:54:21.709Z,18.52
2023-05-15T10:57:23.110Z,18.53
2023-05-15T11:00:28.941Z,18.14
2023-05-15T11:03:48.085Z,17.82
2023-05-15T11:06:51.076Z,18.96
2023-05-15T11:09:53.110Z,18.94
2023-05-15T11:12:58.041Z,19.04
2023-05-15T11:15:59.575Z,19.18
2023-05-15T11:19:01.058Z,19.31
2023-05-15T11:22:08.574Z,18.88
2023-05-15T11:25:10.311Z,18.38
2023-05-15T11:28:21.008Z,18.65
2023-05-15T11:31:23.911Z,19.05
2023-05-15T11:34:34.768Z,19.02
2023-05-15T11:37:42.909Z,18.95
2023-05-15T11:40:44.244Z,19.70
2023-05-15T11:43:45.940Z,19.33
2023-05-15T11:46:47.399Z,19.91
2023-05-15T11:49:48.755Z,19.63
2023-05-15T11:52:50.106Z,19.37
2023-05-15T11:55:52.156Z,19.27
2023-05-15T11:58:57.256Z,18.60
2023-05-15T12:01:59.244Z,18.35
2023-05-15T12:05:00.702Z,18.56
2023-05-15T12:08:02.499Z,19.44
2023-05-15T12:11:04.179Z,19.42
2023-05-15T12:14:05.634Z,19.25
2023-05-15T12:17:07.197Z,19.39
2023-05-15T12:20:10.749Z,17.03
2023-05-15T12:23:14.582Z,16.30
2023-05-15T12:26:15.986Z,16.42
2023-05-15T12:29:17.419Z,15.66
2023-05-15T12:32:18.912Z,15.37
2023-05-15T12:35:20.362Z,15.14
2023-05-15T12:38:22.408Z,15.18
2023-05-15T12:41:27.617Z,15.01
2023-05-15T12:44:29.342Z,14.62
2023-05-15T12:47:30.716Z,14.96
2023-05-15T12:50:32.309Z,14.72
2023-05-15T12:53:39.457Z,14.61
2023-05-15T12:56:41.172Z,14.34
2023-05-15T12:59:42.528Z,14.20
2023-05-15T13:02:44.816Z,14.21
2023-05-15T13:05:46.307Z,14.20
2023-05-15T13:08:47.891Z,14.10
2023-05-15T13:11:49.317Z,14.32
2023-05-15T13:14:50.789Z,14.49
2023-05-15T13:17:52.981Z,14.68
2023-05-15T13:20:54.443Z,14.99
2023-05-15T13:23:55.938Z,15.13
2023-05-15T13:26:57.320Z,14.78
2023-05-15T13:29:58.644Z,14.69
2023-05-15T13:33:00.155Z,14.95
2023-05-15T13:36:01.770Z,15.16
2023-05-15T13:39:03.828Z,15.39
2023-05-15T13:42:05.304Z,15.30
2023-05-15T13:45:07.334Z,15.23
2023-05-15T13:48:08.747Z,15.64
2023-05-15T13:51:10.202Z,17.18
2023-05-15T13:54:11.535Z,17.99
2023-05-15T13:57:12.942Z,18.05
2023-05-15T14:00:14.760Z,16.64
2023-05-15T14:03:16.458Z,15.42
2023-05-15T14:06:17.975Z,15.63
2023-05-15T14:09:19.393Z,15.92
2023-05-15T14:12:22.042Z,15.71
2023-05-15T14:15:23.531Z,15.26
2023-05-15T14:18:25.672Z,15.45
2023-05-15T14:21:27.434Z,15.69
2023-05-15T14:24:28.812Z,15.61
2023-05-15T14:27:30.234Z,15.50
2023-05-15T14:30:31.595Z,15.48
2023-05-15T14:33:32.925Z,15.45
2023-05-15T14:36:34.301Z,15.40
2023-05-15T14:39:35.771Z,15.37
2023-05-15T14:42:37.182Z,15.50
2023-05-15T14:45:38.575Z,15.33
2023-05-15T14:48:40.002Z,15.49
2023-05-15T14:51:41.424Z,15.64
2023-05-15T14:54:43.714Z,15.85
2023-05-15T14:57:49.119Z,15.97
2023-05-15T15:00:50.531Z,15.70
2023-05-15T15:03:52.048Z,15.81
2023-05-15T15:06:57.228Z,15.92
2023-05-15T15:09:58.898Z,15.79
2023-05-15T15:13:00.409Z,15.68
2023-05-15T15:16:01.897Z,15.62
2023-05-15T15:19:03.337Z,15.30
2023-05-15T15:22:04.789Z,15.23
2023-05-15T15:25:06.627Z,15.80
2023-05-15T15:28:08.030Z,16.09
2023-05-15T15:31:09.643Z,16.27
2023-05-15T15:34:11.335Z,16.65
2023-05-15T15:37:12.714Z,16.83
2023-05-15T15:40:14.152Z,16.59
2023-05-15T15:43:15.918Z,16.48
2023-05-15T15:46:19.797Z,16.55
2023-05-15T15:49:21.215Z,16.71
2023-05-15T15:52:22.646Z,16.54
2023-05-15T15:55:24.032Z,16.69
2023-05-15T15:58:25.591Z,16.66
2023-05-15T16:01:27.405Z,16.63
2023-05-15T16:04:28.836Z,16.39
2023-05-15T16:07:30.286Z,16.69
2023-05-15T16:10:31.981Z,16.89
2023-05-15T16:13:33.583Z,16.96
2023-05-15T16:16:35.079Z,16.97
2023-05-15T16:19:36.510Z,16.65
2023-05-15T16:22:37.946Z,16.41
2023-05-15T16:25:39.409Z,16.01
2023-05-15T16:28:40.749Z,16.35
2023-05-15T16:31:42.395Z,16.11
2023-05-15T16:34:43.984Z,16.08
2023-05-15T16:37:45.480Z,16.36
2023-05-15T16:40:46.900Z,16.32
2023-05-15T16:43:49.901Z,16.58
2023-05-15T16:46:51.433Z,16.47
2023-05-15T16:49:52.902Z,16.12
2023-05-15T16:52:54.289Z,16.41
2023-05-15T16:55:55.707Z,16.37
2023-05-15T16:58:57.026Z,16.51
2023-05-15T17:01:59.317Z,16.64
2023-05-15T17:05:00.769Z,16.76
2023-05-15T17:08:02.426Z,16.45
2023-05-15T17:11:04.726Z,16.36
2023-05-15T17:14:06.074Z,16.45
2023-05-15T17:17:07.439Z,16.23
2023-05-15T17:20:09.054Z,16.11
2023-05-15T17:23:10.431Z,16.21
2023-05-15T17:26:11.849Z,16.17
2023-05-15T17:29:13.209Z,16.04
2023-05-15T17:32:15.732Z,15.79
2023-05-15T17:35:17.542Z,15.32
2023-05-15T17:38:18.916Z,15.42
2023-05-15T17:41:21.773Z,15.48
2023-05-15T17:44:27.940Z,15.52
2023-05-15T17:47:29.324Z,15.46
2023-05-15T17:50:30.748Z,15.50
2023-05-15T17:53:32.342Z,15.30
2023-05-15T17:56:33.843Z,15.44
2023-05-15T17:59:35.417Z,15.31
2023-05-15T18:02:36.865Z,15.24
2023-05-15T18:05:38.327Z,15.18
2023-05-15T18:08:40.120Z,15.30
2023-05-15T18:11:41.477Z,15.17
2023-05-15T18:14:42.997Z,15.37
2023-05-15T18:17:44.431Z,15.33
2023-05-15T18:20:45.903Z,15.27
2023-05-15T18:23:47.380Z,15.05
2023-05-15T18:26:48.819Z,15.02
2023-05-15T18:29:52.676Z,14.91
2023-05-15T18:32:54.052Z,15.12
2023-05-15T18:35:55.568Z,15.09
2023-05-15T18:38:56.933Z,14.99
2023-05-15T18:41:59.913Z,14.90
2023-05-15T18:45:02.121Z,14.81
2023-05-15T18:48:03.653Z,14.80
2023-05-15T18:51:05.091Z,14.72
2023-05-15T18:54:06.594Z,14.51
2023-05-15T18:57:08.297Z,14.53
2023-05-15T19:00:09.941Z,14.39
2023-05-15T19:03:11.447Z,14.31
2023-05-15T19:06:19.585Z,14.22
2023-05-15T19:09:20.980Z,14.11
2023-05-15T19:12:22.406Z,14.02
2023-05-15T19:15:23.792Z,14.03
2023-05-15T19:18:25.192Z,13.86
2023-05-15T19:21:26.870Z,13.83
2023-05-15T19:24:28.393Z,13.78
2023-05-15T19:27:29.885Z,13.76
2023-05-15T19:30:32.004Z,13.68
2023-05-15T19:33:35.455Z,13.61
2023-05-15T19:36:36.844Z,13.54
2023-05-15T19:39:38.206Z,13.56
2023-05-15T19:42:39.569Z,13.49
2023-05-15T19:45:41.843Z,13.48
2023-05-15T19:48:43.315Z,13.42
2023-05-15T19:51:44.726Z,13.34
2023-05-15T19:54:46.120Z,13.30
2023-05-15T19:57:47.583Z,13.25
2023-05-15T20:00:49.878Z,13.19
2023-05-15T20:03:51.358Z,13.16
2023-05-15T20:06:53.228Z,13.13
2023-05-15T20:09:55.420Z,13.11
2023-05-15T20:12:56.931Z,12.93
2023-05-15T20:15:58.999Z,12.79
2023-05-15T20:19:00.564Z,12.53
2023-05-15T20:22:02.145Z,12.57
2023-05-15T20:25:03.595Z,12.63
2023-05-15T20:28:05.263Z,12.64
2023-05-15T20:31:06.676Z,12.76
2023-05-15T20:34:08.405Z,12.75
2023-05-15T20:37:10.017Z,12.73
2023-05-15T20:40:12.835Z,12.74
2023-05-15T20:43:14.209Z,12.79
2023-05-15T20:46:15.837Z,12.70
2023-05-15T20:49:17.429Z,12.63
2023-05-15T20:52:19.088Z,12.41
2023-05-15T20:55:21.628Z,12.30
2023-05-15T20:58:23.102Z,12.31
2023-05-15T21:01:24.489Z,12.29
2023-05-15T21:04:25.922Z,12.36
2023-05-15T21:07:27.268Z,12.37
2023-05-15T21:10:28.860Z,12.46
2023-05-15T21:13:30.478Z,12.38
2023-05-15T21:16:31.866Z,12.36
2023-05-15T21:19:33.278Z,12.33
2023-05-15T21:22:34.718Z,12.24
2023-05-15T21:25:36.825Z,12.27
2023-05-15T21:28:38.197Z,12.31
2023-05-15T21:31:39.645Z,12.36
2023-05-15T21:34:41.412Z,12.24
2023-05-15T21:37:43.566Z,12.03
2023-05-15T21:40:44.917Z,12.10
2023-05-15T21:43:46.276Z,12.12
2023-05-15T21:46:47.828Z,12.17
2023-05-15T21:49:49.325Z,12.24
2023-05-15T21:52:51.602Z,12.29
2023-05-15T21:55:58.573Z,12.30
2023-05-15T21:58:59.929Z,12.32
2023-05-15T22:02:01.308Z,12.31
2023-05-15T22:05:03.055Z,12.38
2023-05-15T22:08:04.533Z,12.35
2023-05-15T22:11:06.697Z,12.39
2023-05-15T22:14:08.132Z,12.34
2023-05-15T22:17:09.486Z,12.31
2023-05-15T22:20:11.664Z,12.27
2023-05-15T22:23:13.031Z,12.31
2023-05-15T22:26:14.435Z,12.26
2023-05-15T22:29:15.788Z,12.28
2023-05-15T22:32:17.158Z,12.29
2023-05-15T22:35:18.945Z,12.27
2023-05-15T22:38:20.491Z,12.29
2023-05-15T22:41:21.879Z,12.37
2023-05-15T22:44:23.210Z,12.34
2023-05-15T22:47:24.736Z,12.25
2023-05-15T22:50:26.660Z,12.20
2023-05-15T22:53:28.369Z,12.07
2023-05-15T22:56:29.734Z,12.06
2023-05-15T22:59:31.183Z,12.05
2023-05-15T23:02:32.584Z,11.86
2023-05-15T23:05:34.051Z,11.88
2023-05-15T23:08:35.657Z,11.95
2023-05-15T23:11:37.845Z,11.90
2023-05-15T23:14:39.583Z,11.93
2023-05-15T23:17:41.240Z,11.86
2023-05-15T23:20:42.633Z,11.98
2023-05-15T23:23:44.749Z,11.93
2023-05-15T23:26:47.023Z,11.96
2023-05-15T23:29:48.377Z,11.81
2023-05-15T23:32:50.511Z,11.83
2023-05-15T23:35:52.337Z,11.81
2023-05-15T23:38:53.802Z,11.77
2023-05-15T23:41:56.485Z,11.76
2023-05-15T23:44:57.846Z,11.81
2023-05-15T23:47:59.259Z,11.79
2023-05-15T23:51:00.906Z,11.73
2023-05-15T23:54:02.311Z,11.76
2023-05-15T23:57:03.936Z,11.71
